createdAt,value
2023-02-11T00:00:28.639Z,52.10
2023-02-11T00:01:28.637Z,53.20
2023-02-11T00:02:28.645Z,49.70
2023-02-11T00:03:28.652Z,46.40
2023-02-11T00:04:28.582Z,50.80
2023-02-11T00:05:28.561Z,45.80
2023-02-11T00:06:28.606Z,49.40
2023-02-11T00:07:28.562Z,48.00
2023-02-11T00:08:28.530Z,50.40
2023-02-11T00:09:30.926Z,50.20
2023-02-11T00:10:28.524Z,52.00
2023-02-11T00:11:28.514Z,53.50
2023-02-11T00:12:28.493Z,50.40
2023-02-11T00:13:28.469Z,53.20
2023-02-11T00:14:28.453Z,51.40
2023-02-11T00:15:28.433Z,50.60
2023-02-11T00:16:28.465Z,47.90
2023-02-11T00:17:28.427Z,46.50
2023-02-11T00:18:28.402Z,52.50
2023-02-11T00:19:28.384Z,48.20
2023-02-11T00:20:28.373Z,50.40
2023-02-11T00:21:28.403Z,49.50
2023-02-11T00:22:28.376Z,48.20
2023-02-11T00:23:28.418Z,52.60
2023-02-11T00:24:28.324Z,52.50
2023-02-11T00:25:28.346Z,50.00
2023-02-11T00:26:28.309Z,47.80
2023-02-11T00:27:28.295Z,49.80
2023-02-11T00:28:28.317Z,48.00
2023-02-11T00:29:28.246Z,47.70
2023-02-11T00:30:28.298Z,50.90
2023-02-11T00:31:28.339Z,52.60
2023-02-11T00:32:28.223Z,46.60
2023-02-11T00:33:28.220Z,49.60
2023-02-11T00:34:28.182Z,52.40
2023-02-11T00:35:28.170Z,50.90
2023-02-11T00:36:28.158Z,49.20
2023-02-11T00:37:28.159Z,51.20
2023-02-11T00:38:28.135Z,54.90
2023-02-11T00:39:28.126Z,50.70
2023-02-11T00:40:28.099Z,53.00
2023-02-11T00:41:28.090Z,52.20
2023-02-11T00:42:28.081Z,48.70
2023-02-11T00:43:28.081Z,52.90
2023-02-11T00:44:28.051Z,52.60
2023-02-11T00:45:28.053Z,49.40
2023-02-11T00:46:28.166Z,54.80
2023-02-11T00:47:28.032Z,53.80
2023-02-11T00:48:27.992Z,57.90
2023-02-11T00:49:28.000Z,54.30
2023-02-11T00:50:27.974Z,50.00
2023-02-11T00:51:27.968Z,51.10
2023-02-11T00:52:27.947Z,57.80
2023-02-11T00:53:27.950Z,59.90
2023-02-11T00:54:29.946Z,55.00
2023-02-11T00:55:27.912Z,54.00
2023-02-11T00:56:27.890Z,52.60
2023-02-11T00:57:27.882Z,54.80
2023-02-11T00:58:27.886Z,56.90
2023-02-11T00:59:27.850Z,55.20
2023-02-11T01:00:27.841Z,51.80
2023-02-11T01:01:28.008Z,54.50
2023-02-11T01:02:27.823Z,51.20
2023-02-11T01:03:27.818Z,53.40
2023-02-11T01:04:27.782Z,59.70
2023-02-11T01:05:27.790Z,53.60
2023-02-11T01:06:27.778Z,56.80
2023-02-11T01:07:27.768Z,50.90
2023-02-11T01:08:27.756Z,53.70
2023-02-11T01:09:27.724Z,52.30
2023-02-11T01:10:27.705Z,53.50
2023-02-11T01:11:27.699Z,58.90
2023-02-11T01:12:27.695Z,56.20
2023-02-11T01:13:27.697Z,53.10
2023-02-11T01:14:27.667Z,53.50
2023-02-11T01:15:27.794Z,54.40
2023-02-11T01:16:27.646Z,51.70
2023-02-11T01:17:27.625Z,61.10
2023-02-11T01:18:27.615Z,55.00
2023-02-11T01:19:27.607Z,53.40
2023-02-11T01:20:27.586Z,57.80
2023-02-11T01:21:27.618Z,59.30
2023-02-11T01:22:27.547Z,50.50
2023-02-11T01:23:27.568Z,57.90
2023-02-11T01:24:27.548Z,52.20
2023-02-11T01:25:27.540Z,55.90
2023-02-11T01:26:27.513Z,55.40
2023-02-11T01:27:27.488Z,55.10
2023-02-11T01:28:27.533Z,54.80
2023-02-11T01:29:27.461Z,49.80
2023-02-11T01:30:27.450Z,55.10
2023-02-11T01:31:27.593Z,57.00
2023-02-11T01:32:27.442Z,53.80
2023-02-11T01:33:27.428Z,53.90
2023-02-11T01:34:27.400Z,53.30
2023-02-11T01:35:27.389Z,53.50
2023-02-11T01:36:27.382Z,55.60
2023-02-11T01:37:27.359Z,56.90
2023-02-11T01:38:27.357Z,56.50
2023-02-11T01:39:27.342Z,54.70
2023-02-11T01:40:27.329Z,53.20
2023-02-11T01:41:27.334Z,51.80
2023-02-11T01:42:27.293Z,56.80
2023-02-11T01:43:27.291Z,54.10
2023-02-11T01:44:27.269Z,55.70
2023-02-11T01:45:27.277Z,58.00
2023-02-11T01:46:34.294Z,52.80
2023-02-11T01:47:27.230Z,58.60
2023-02-11T01:48:27.927Z,56.50
2023-02-11T01:49:27.266Z,50.60
2023-02-11T01:50:27.200Z,49.00
2023-02-11T01:51:27.206Z,50.20
2023-02-11T01:52:27.168Z,56.70
2023-02-11T01:53:27.169Z,54.80
2023-02-11T01:54:27.141Z,52.40
2023-02-11T01:55:27.125Z,52.80
2023-02-11T01:56:27.108Z,52.30
2023-02-11T01:57:27.092Z,51.70
2023-02-11T01:58:27.119Z,55.00
2023-02-11T01:59:27.086Z,54.30
2023-02-11T02:00:27.072Z,57.80
2023-02-11T02:01:27.141Z,52.80
2023-02-11T02:02:27.039Z,54.10
2023-02-11T02:03:27.069Z,49.80
2023-02-11T02:04:27.010Z,48.60
2023-02-11T02:05:26.993Z,56.00
2023-02-11T02:06:26.984Z,55.90
2023-02-11T02:07:26.977Z,48.80
2023-02-11T02:08:26.966Z,55.10
2023-02-11T02:09:26.969Z,50.80
2023-02-11T02:10:26.922Z,47.20
2023-02-11T02:11:26.922Z,53.30
2023-02-11T02:12:26.922Z,52.50
2023-02-11T02:13:26.901Z,50.50
2023-02-11T02:14:26.870Z,53.10
2023-02-11T02:15:26.871Z,50.80
2023-02-11T02:16:26.914Z,49.20
2023-02-11T02:17:26.838Z,51.50
2023-02-11T02:18:26.857Z,48.70
2023-02-11T02:19:26.812Z,50.00
2023-02-11T02:20:26.780Z,50.20
2023-02-11T02:21:26.782Z,48.50
2023-02-11T02:22:26.781Z,55.20
2023-02-11T02:23:26.771Z,51.40
2023-02-11T02:24:26.772Z,51.30
2023-02-11T02:25:26.719Z,52.90
2023-02-11T02:26:26.750Z,53.50
2023-02-11T02:27:26.696Z,50.20
2023-02-11T02:28:26.734Z,50.90
2023-02-11T02:29:26.691Z,50.20
2023-02-11T02:30:26.698Z,53.70
2023-02-11T02:31:26.702Z,48.30
2023-02-11T02:32:26.624Z,53.10
2023-02-11T02:33:26.643Z,46.50
2023-02-11T02:34:26.609Z,47.30
2023-02-11T02:35:26.625Z,48.60
2023-02-11T02:36:26.571Z,48.20
2023-02-11T02:37:26.567Z,51.50
2023-02-11T02:38:26.593Z,50.70
2023-02-11T02:39:26.547Z,52.00
2023-02-11T02:40:26.523Z,51.10
2023-02-11T02:41:26.508Z,48.20
2023-02-11T02:42:26.496Z,48.90
2023-02-11T02:43:26.509Z,55.30
2023-02-11T02:44:26.470Z,49.20
2023-02-11T02:45:26.460Z,47.10
2023-02-11T02:46:26.567Z,51.30
2023-02-11T02:47:26.473Z,49.80
2023-02-11T02:48:26.439Z,46.40
2023-02-11T02:49:26.403Z,53.40
2023-02-11T02:50:26.399Z,57.50
2023-02-11T02:51:26.425Z,51.30
2023-02-11T02:52:26.362Z,52.60
2023-02-11T02:53:26.371Z,46.10
2023-02-11T02:54:26.335Z,53.00
2023-02-11T02:55:26.337Z,50.80
2023-02-11T02:56:26.314Z,50.20
2023-02-11T02:57:26.333Z,54.40
2023-02-11T02:58:26.297Z,52.30
2023-02-11T02:59:26.273Z,50.20
2023-02-11T03:00:26.320Z,50.80
2023-02-11T03:01:26.270Z,46.30
2023-02-11T03:02:26.255Z,47.70
2023-02-11T03:03:26.291Z,51.10
2023-02-11T03:04:26.213Z,50.50
2023-02-11T03:05:26.205Z,47.10
2023-02-11T03:06:26.201Z,51.00
2023-02-11T03:07:26.207Z,52.60
2023-02-11T03:08:26.174Z,45.40
2023-02-11T03:09:26.144Z,51.90
2023-02-11T03:10:26.146Z,52.20
2023-02-11T03:11:26.175Z,56.60
2023-02-11T03:12:26.111Z,51.60
2023-02-11T03:13:26.109Z,53.10
2023-02-11T03:14:26.077Z,53.30
2023-02-11T03:15:26.067Z,50.50
2023-02-11T03:16:26.134Z,46.30
2023-02-11T03:17:26.040Z,44.10
2023-02-11T03:18:26.049Z,47.50
2023-02-11T03:19:26.016Z,51.20
2023-02-11T03:20:25.999Z,50.70
2023-02-11T03:21:25.993Z,48.80
2023-02-11T03:22:25.978Z,48.50
2023-02-11T03:23:25.968Z,47.20
2023-02-11T03:24:25.967Z,44.90
2023-02-11T03:25:25.942Z,47.80
2023-02-11T03:26:25.939Z,43.20
2023-02-11T03:27:25.919Z,45.00
2023-02-11T03:28:25.918Z,50.80
2023-02-11T03:29:25.898Z,53.90
2023-02-11T03:30:25.858Z,44.80
2023-02-11T03:31:25.933Z,47.50
2023-02-11T03:32:25.866Z,47.80
2023-02-11T03:33:25.879Z,47.40
2023-02-11T03:34:25.834Z,49.50
2023-02-11T03:35:25.803Z,47.90
2023-02-11T03:36:25.779Z,46.30
2023-02-11T03:37:25.788Z,47.10
2023-02-11T03:38:25.782Z,49.00
2023-02-11T03:39:25.788Z,51.50
2023-02-11T03:40:25.732Z,47.80
2023-02-11T03:41:25.742Z,44.50
2023-02-11T03:42:25.698Z,49.60
2023-02-11T03:43:25.689Z,48.90
2023-02-11T03:44:25.752Z,46.20
2023-02-11T03:45:25.714Z,52.70
2023-02-11T03:46:25.671Z,46.00
2023-02-11T03:47:25.651Z,54.00
2023-02-11T03:48:25.632Z,50.60
2023-02-11T03:49:25.631Z,54.90
2023-02-11T03:50:25.605Z,47.50
2023-02-11T03:51:25.631Z,54.90
2023-02-11T03:52:25.619Z,52.30
2023-02-11T03:53:25.584Z,53.70
2023-02-11T03:54:25.567Z,53.70
2023-02-11T03:55:25.558Z,51.50
2023-02-11T03:56:25.527Z,50.10
2023-02-11T03:57:25.511Z,53.80
2023-02-11T03:58:25.500Z,52.50
2023-02-11T03:59:25.551Z,51.70
2023-02-11T04:00:25.483Z,54.40
2023-02-11T04:01:25.485Z,55.00
2023-02-11T04:02:25.449Z,51.60
2023-02-11T04:03:25.481Z,47.50
2023-02-11T04:04:25.432Z,57.80
2023-02-11T04:05:25.421Z,56.70
2023-02-11T04:06:25.404Z,51.60
2023-02-11T04:07:25.392Z,56.30
2023-02-11T04:08:25.365Z,52.20
2023-02-11T04:09:25.371Z,51.20
2023-02-11T04:10:25.354Z,49.00
2023-02-11T04:11:25.338Z,52.90
2023-02-11T04:12:25.340Z,48.90
2023-02-11T04:13:25.319Z,53.30
2023-02-11T04:14:25.328Z,54.70
2023-02-11T04:15:25.293Z,51.30
2023-02-11T04:16:25.296Z,50.90
2023-02-11T04:17:25.257Z,51.20
2023-02-11T04:18:25.246Z,59.30
2023-02-11T04:19:25.244Z,58.40
2023-02-11T04:20:25.227Z,56.00
2023-02-11T04:21:25.192Z,51.30
2023-02-11T04:22:25.200Z,54.40
2023-02-11T04:23:25.175Z,52.80
2023-02-11T04:24:25.154Z,50.80
2023-02-11T04:25:25.170Z,54.30
2023-02-11T04:26:25.131Z,58.00
2023-02-11T04:27:25.124Z,57.60
2023-02-11T04:28:25.160Z,54.70
2023-02-11T04:29:25.094Z,55.30
2023-02-11T04:30:25.100Z,61.70
2023-02-11T04:31:25.190Z,64.40
2023-02-11T04:32:25.055Z,57.80
2023-02-11T04:33:25.060Z,55.50
2023-02-11T04:34:25.025Z,53.90
2023-02-11T04:35:25.029Z,54.70
2023-02-11T04:36:25.002Z,60.00
2023-02-11T04:37:24.993Z,54.00
2023-02-11T04:38:24.975Z,56.90
2023-02-11T04:39:24.988Z,56.60
2023-02-11T04:40:24.973Z,52.70
2023-02-11T04:41:24.936Z,59.30
2023-02-11T04:42:24.925Z,55.40
2023-02-11T04:43:24.905Z,57.90
2023-02-11T04:44:24.898Z,56.10
2023-02-11T04:45:24.909Z,57.10
2023-02-11T04:46:24.939Z,59.50
2023-02-11T04:47:24.856Z,59.40
2023-02-11T04:48:24.846Z,58.20
2023-02-11T04:49:24.828Z,55.30
2023-02-11T04:50:24.865Z,56.00
2023-02-11T04:51:24.811Z,64.90
2023-02-11T04:52:24.798Z,59.70
2023-02-11T04:53:24.777Z,57.90
2023-02-11T04:54:24.779Z,58.40
2023-02-11T04:55:24.764Z,63.30
2023-02-11T04:56:24.740Z,63.20
2023-02-11T04:57:24.741Z,60.60
2023-02-11T04:58:24.733Z,61.00
2023-02-11T04:59:24.697Z,67.90
2023-02-11T05:00:24.700Z,66.20
2023-02-11T05:01:24.721Z,63.40
2023-02-11T05:02:24.663Z,66.50
2023-02-11T05:03:24.651Z,62.00
2023-02-11T05:04:24.741Z,60.40
2023-02-11T05:05:24.637Z,64.50
2023-02-11T05:06:24.638Z,70.80
2023-02-11T05:07:24.595Z,61.90
2023-02-11T05:08:24.588Z,62.70
2023-02-11T05:09:24.579Z,70.80
2023-02-11T05:10:24.568Z,66.20
2023-02-11T05:11:24.572Z,69.70
2023-02-11T05:12:24.616Z,69.50
2023-02-11T05:13:24.554Z,73.20
2023-02-11T05:14:24.533Z,71.90
2023-02-11T05:15:24.538Z,67.40
2023-02-11T05:16:24.522Z,70.70
2023-02-11T05:17:24.466Z,70.10
2023-02-11T05:18:24.462Z,76.00
2023-02-11T05:19:24.429Z,80.60
2023-02-11T05:20:24.430Z,74.60
2023-02-11T05:21:24.398Z,79.30
2023-02-11T05:22:24.399Z,73.00
2023-02-11T05:23:24.377Z,73.70
2023-02-11T05:24:24.369Z,69.00
2023-02-11T05:25:24.409Z,72.30
2023-02-11T05:26:24.360Z,73.90
2023-02-11T05:27:24.330Z,71.00
2023-02-11T05:28:24.426Z,74.20
2023-02-11T05:29:24.312Z,69.20
2023-02-11T05:30:24.304Z,75.80
2023-02-11T05:31:24.282Z,78.10
2023-02-11T05:32:24.273Z,77.60
2023-02-11T05:33:24.265Z,76.00
2023-02-11T05:34:24.251Z,67.50
2023-02-11T05:35:24.245Z,81.50
2023-02-11T05:36:24.239Z,81.30
2023-02-11T05:37:24.307Z,76.30
2023-02-11T05:38:24.195Z,75.50
2023-02-11T05:39:24.172Z,80.50
2023-02-11T05:40:24.164Z,90.40
2023-02-11T05:41:24.150Z,80.40
2023-02-11T05:42:24.134Z,85.60
2023-02-11T05:43:24.120Z,81.40
2023-02-11T05:44:24.109Z,89.50
2023-02-11T05:45:24.096Z,85.20
2023-02-11T05:46:24.261Z,80.50
2023-02-11T05:47:24.078Z,91.40
2023-02-11T05:48:24.059Z,84.90
2023-02-11T05:49:24.093Z,88.70
2023-02-11T05:50:24.033Z,83.60
2023-02-11T05:51:24.055Z,81.90
2023-02-11T05:52:23.999Z,96.00
2023-02-11T05:53:23.985Z,87.80
2023-02-11T05:54:23.998Z,92.80
2023-02-11T05:55:23.952Z,86.70
2023-02-11T05:56:23.972Z,90.10
2023-02-11T05:57:23.922Z,88.70
2023-02-11T05:58:23.935Z,92.80
2023-02-11T05:59:23.922Z,87.90
2023-02-11T06:00:23.902Z,92.00
2023-02-11T06:01:23.885Z,90.90
2023-02-11T06:02:23.917Z,91.60
2023-02-11T06:03:23.858Z,90.50
2023-02-11T06:04:23.893Z,82.30
2023-02-11T06:05:23.835Z,90.90
2023-02-11T06:06:23.823Z,96.60
2023-02-11T06:07:23.812Z,91.40
2023-02-11T06:08:23.810Z,97.70
2023-02-11T06:09:23.772Z,98.10
2023-02-11T06:10:23.803Z,92.20
2023-02-11T06:11:23.764Z,86.60
2023-02-11T06:12:23.742Z,87.80
2023-02-11T06:13:23.714Z,86.30
2023-02-11T06:14:23.744Z,88.40
2023-02-11T06:15:23.709Z,90.00
2023-02-11T06:16:23.755Z,88.50
2023-02-11T06:17:23.664Z,90.70
2023-02-11T06:18:23.683Z,93.90
2023-02-11T06:19:23.637Z,89.70
2023-02-11T06:20:23.673Z,86.10
2023-02-11T06:21:28.578Z,91.80
2023-02-11T06:22:24.604Z,85.50
2023-02-11T06:23:23.632Z,94.60
2023-02-11T06:24:47.778Z,86.20
2023-02-11T06:25:24.571Z,94.70
2023-02-11T06:26:23.611Z,90.00
2023-02-11T06:27:23.567Z,81.10
2023-02-11T06:28:23.578Z,92.60
2023-02-11T06:29:23.506Z,83.70
2023-02-11T06:30:23.517Z,79.50
2023-02-11T06:31:23.587Z,90.60
2023-02-11T06:32:43.464Z,88.70
2023-02-11T06:33:24.458Z,84.80
2023-02-11T06:34:23.468Z,86.30
2023-02-11T06:35:23.450Z,87.60
2023-02-11T06:36:23.479Z,88.30
2023-02-11T06:37:23.408Z,89.10
2023-02-11T06:38:23.425Z,95.20
2023-02-11T06:39:23.376Z,82.00
2023-02-11T06:40:23.432Z,81.50
2023-02-11T06:41:23.367Z,80.70
2023-02-11T06:42:23.361Z,86.30
2023-02-11T06:43:23.331Z,89.70
2023-02-11T06:44:23.318Z,80.90
2023-02-11T06:45:23.297Z,82.80
2023-02-11T06:46:23.325Z,88.80
2023-02-11T06:47:23.320Z,90.20
2023-02-11T06:48:23.274Z,82.20
2023-02-11T06:49:23.295Z,76.70
2023-02-11T06:50:23.264Z,83.80
2023-02-11T06:51:23.243Z,88.20
2023-02-11T06:52:23.330Z,80.10
2023-02-11T06:53:23.203Z,75.10
2023-02-11T06:54:23.201Z,78.10
2023-02-11T06:55:23.195Z,80.40
2023-02-11T06:56:23.195Z,79.40
2023-02-11T06:57:23.182Z,77.50
2023-02-11T06:58:23.171Z,82.10
2023-02-11T06:59:23.130Z,84.00
2023-02-11T07:00:23.159Z,75.70
2023-02-11T07:01:23.136Z,97.20
2023-02-11T07:02:23.099Z,75.70
2023-02-11T07:03:23.071Z,81.10
2023-02-11T07:04:23.077Z,79.00
2023-02-11T07:05:23.056Z,82.70
2023-02-11T07:06:23.362Z,78.00
2023-02-11T07:07:23.050Z,80.60
2023-02-11T07:08:23.021Z,90.50
2023-02-11T07:09:23.013Z,83.00
2023-02-11T07:10:22.993Z,83.70
2023-02-11T07:11:23.003Z,86.70
2023-02-11T07:12:22.955Z,81.00
2023-02-11T07:13:22.935Z,83.00
2023-02-11T07:14:22.932Z,81.30
2023-02-11T07:15:22.939Z,87.70
2023-02-11T07:16:23.024Z,84.40
2023-02-11T07:17:22.895Z,81.30
2023-02-11T07:18:22.898Z,83.70
2023-02-11T07:19:22.897Z,88.30
2023-02-11T07:20:22.870Z,86.00
2023-02-11T07:21:22.878Z,92.80
2023-02-11T07:22:22.830Z,80.80
2023-02-11T07:23:22.828Z,85.60
2023-02-11T07:24:22.805Z,86.50
2023-02-11T07:25:22.783Z,84.70
2023-02-11T07:26:22.801Z,96.30
2023-02-11T07:27:22.754Z,85.10
2023-02-11T07:28:22.787Z,89.50
2023-02-11T07:29:22.746Z,89.30
2023-02-11T07:30:22.724Z,86.90
2023-02-11T07:31:22.830Z,85.80
2023-02-11T07:32:22.707Z,82.80
2023-02-11T07:33:22.673Z,76.30
2023-02-11T07:34:22.738Z,85.30
2023-02-11T07:35:22.655Z,84.30
2023-02-11T07:36:22.647Z,90.80
2023-02-11T07:37:22.633Z,83.00
2023-02-11T07:38:22.614Z,84.00
2023-02-11T07:39:22.602Z,84.90
2023-02-11T07:40:22.601Z,81.90
2023-02-11T07:41:22.591Z,85.80
2023-02-11T07:42:22.590Z,84.60
2023-02-11T07:43:22.557Z,86.30
2023-02-11T07:44:22.552Z,84.50
2023-02-11T07:45:22.548Z,91.80
2023-02-11T07:47:31.154Z,85.60
2023-02-11T07:48:22.474Z,82.70
2023-02-11T07:49:22.460Z,85.30
2023-02-11T07:50:22.453Z,88.50
2023-02-11T07:51:22.433Z,87.70
2023-02-11T07:52:22.441Z,86.40
2023-02-11T07:53:22.401Z,95.80
2023-02-11T07:54:22.432Z,90.30
2023-02-11T07:55:22.402Z,92.70
2023-02-11T07:56:22.373Z,93.40
2023-02-11T07:57:22.381Z,88.90
2023-02-11T07:58:22.350Z,84.70
2023-02-11T07:59:22.322Z,87.30
2023-02-11T08:00:22.324Z,97.30
2023-02-11T08:01:22.337Z,92.80
2023-02-11T08:02:22.366Z,85.30
2023-02-11T08:03:22.273Z,92.70
2023-02-11T08:04:22.283Z,93.20
2023-02-11T08:05:22.265Z,92.30
2023-02-11T08:06:22.248Z,91.80
2023-02-11T08:07:22.260Z,86.90
2023-02-11T08:08:22.212Z,84.60
2023-02-11T08:09:22.212Z,95.70
2023-02-11T08:10:22.203Z,92.00
2023-02-11T08:11:22.166Z,88.10
2023-02-11T08:12:22.175Z,82.50
2023-02-11T08:13:22.152Z,91.50
2023-02-11T08:14:22.142Z,89.50
2023-02-11T08:15:22.117Z,87.80
2023-02-11T08:16:22.169Z,94.40
2023-02-11T08:17:22.111Z,89.50
2023-02-11T08:18:22.089Z,99.10
2023-02-11T08:19:22.084Z,99.00
2023-02-11T08:20:22.059Z,93.70
2023-02-11T08:21:22.051Z,94.40
2023-02-11T08:22:22.032Z,84.70
2023-02-11T08:23:22.012Z,86.40
2023-02-11T08:24:21.988Z,100.60
2023-02-11T08:25:21.972Z,97.40
2023-02-11T08:26:21.980Z,96.00
2023-02-11T08:27:21.966Z,94.20
2023-02-11T08:28:21.946Z,89.40
2023-02-11T08:29:21.927Z,100.80
2023-02-11T08:30:21.908Z,100.10
2023-02-11T08:31:22.030Z,90.60
2023-02-11T08:32:21.971Z,94.30
2023-02-11T08:33:21.865Z,99.00
2023-02-11T08:34:21.863Z,96.90
2023-02-11T08:35:21.836Z,87.90
2023-02-11T08:36:21.827Z,96.20
2023-02-11T08:37:21.828Z,96.20
2023-02-11T08:38:21.807Z,92.40
2023-02-11T08:39:21.792Z,92.60
2023-02-11T08:40:21.775Z,91.00
2023-02-11T08:41:21.778Z,94.20
2023-02-11T08:42:21.758Z,96.80
2023-02-11T08:43:21.738Z,102.10
2023-02-11T08:44:21.731Z,90.80
2023-02-11T08:45:21.720Z,95.80
2023-02-11T08:46:21.717Z,90.10
2023-02-11T08:47:21.697Z,100.20
2023-02-11T08:48:21.677Z,101.60
2023-02-11T08:49:21.651Z,101.50
2023-02-11T08:50:21.641Z,98.00
2023-02-11T08:51:21.625Z,94.60
2023-02-11T08:52:21.649Z,92.60
2023-02-11T08:53:21.612Z,91.70
2023-02-11T08:54:21.589Z,92.60
2023-02-11T08:55:21.584Z,91.20
2023-02-11T08:56:21.567Z,97.70
2023-02-11T08:57:21.567Z,94.60
2023-02-11T08:58:21.558Z,99.20
2023-02-11T08:59:21.530Z,106.90
2023-02-11T09:00:21.511Z,103.20
2023-02-11T09:01:22.997Z,93.70
2023-02-11T09:02:21.577Z,98.10
2023-02-11T09:03:21.469Z,101.00
2023-02-11T09:04:21.450Z,83.80
2023-02-11T09:05:21.447Z,97.50
2023-02-11T09:06:21.427Z,97.20
2023-02-11T09:07:21.448Z,108.80
2023-02-11T09:08:21.408Z,99.60
2023-02-11T09:09:21.397Z,100.80
2023-02-11T09:10:21.370Z,103.80
2023-02-11T09:11:21.361Z,101.70
2023-02-11T09:12:21.360Z,102.60
2023-02-11T09:13:21.350Z,97.40
2023-02-11T09:14:21.373Z,105.90
2023-02-11T09:15:21.330Z,95.50
2023-02-11T09:16:21.368Z,91.80
2023-02-11T09:17:21.299Z,91.60
2023-02-11T09:18:21.276Z,91.20
2023-02-11T09:19:21.281Z,95.00
2023-02-11T09:20:21.251Z,97.20
2023-02-11T09:21:21.231Z,102.50
2023-02-11T09:22:21.221Z,96.90
2023-02-11T09:23:21.226Z,101.10
2023-02-11T09:24:21.192Z,93.50
2023-02-11T09:25:21.182Z,95.70
2023-02-11T09:26:21.181Z,95.20
2023-02-11T09:27:21.164Z,98.80
2023-02-11T09:28:21.208Z,94.50
2023-02-11T09:29:21.132Z,96.50
2023-02-11T09:30:21.123Z,98.80
2023-02-11T09:31:21.224Z,92.00
2023-02-11T09:32:21.084Z,93.10
2023-02-11T09:33:21.103Z,100.00
2023-02-11T09:34:21.063Z,92.70
2023-02-11T09:35:21.079Z,95.20
2023-02-11T09:36:21.052Z,94.20
2023-02-11T09:37:21.043Z,89.80
2023-02-11T09:38:21.015Z,92.00
2023-02-11T09:39:21.016Z,99.30
2023-02-11T09:40:20.973Z,91.20
2023-02-11T09:41:20.978Z,96.30
2023-02-11T09:42:20.958Z,99.90
2023-02-11T09:43:20.954Z,95.80
2023-02-11T09:44:20.937Z,95.20
2023-02-11T09:45:20.915Z,93.60
2023-02-11T09:46:20.958Z,96.70
2023-02-11T09:47:20.892Z,91.10
2023-02-11T09:48:20.904Z,86.20
2023-02-11T09:49:20.874Z,94.40
2023-02-11T09:50:20.847Z,95.50
2023-02-11T09:51:20.838Z,85.80
2023-02-11T09:52:20.825Z,94.70
2023-02-11T09:53:20.830Z,95.40
2023-02-11T09:54:20.796Z,88.50
2023-02-11T09:55:20.800Z,92.00
2023-02-11T09:56:20.766Z,87.10
2023-02-11T09:57:28.626Z,90.50
2023-02-11T09:58:21.758Z,92.00
2023-02-11T09:59:20.735Z,86.20
2023-02-11T10:00:20.737Z,90.70
2023-02-11T10:01:21.097Z,93.40
2023-02-11T10:02:20.696Z,89.10
2023-02-11T10:03:20.688Z,87.30
2023-02-11T10:04:20.725Z,89.50
2023-02-11T10:05:20.668Z,90.70
2023-02-11T10:06:20.650Z,92.00
2023-02-11T10:07:20.630Z,92.40
2023-02-11T10:08:20.620Z,86.40
2023-02-11T10:09:20.629Z,92.90
2023-02-11T10:10:20.634Z,100.40
2023-02-11T10:11:31.238Z,92.40
2023-02-11T10:12:21.562Z,94.00
2023-02-11T10:13:20.562Z,88.20
2023-02-11T10:14:20.534Z,95.70
2023-02-11T10:15:20.526Z,89.80
2023-02-11T10:16:20.507Z,87.80
2023-02-11T10:17:20.502Z,90.50
2023-02-11T10:18:20.506Z,94.80
2023-02-11T10:19:20.487Z,89.40
2023-02-11T10:20:20.464Z,86.00
2023-02-11T10:21:20.450Z,97.10
2023-02-11T10:22:20.433Z,87.10
2023-02-11T10:23:20.444Z,85.90
2023-02-11T10:24:20.413Z,99.30
2023-02-11T10:25:20.392Z,86.60
2023-02-11T10:26:20.374Z,94.60
2023-02-11T10:27:20.366Z,92.20
2023-02-11T10:28:20.417Z,89.80
2023-02-11T10:29:20.350Z,93.90
2023-02-11T10:30:20.341Z,84.00
2023-02-11T10:31:20.415Z,91.30
2023-02-11T10:32:20.311Z,90.80
2023-02-11T10:33:20.312Z,94.50
2023-02-11T10:34:20.262Z,93.50
2023-02-11T10:35:20.265Z,87.60
2023-02-11T10:36:20.242Z,89.20
2023-02-11T10:37:20.239Z,84.00
2023-02-11T10:38:20.216Z,96.20
2023-02-11T10:39:20.227Z,94.50
2023-02-11T10:40:20.191Z,89.60
2023-02-11T10:41:20.187Z,90.80
2023-02-11T10:42:20.162Z,96.00
2023-02-11T10:43:20.153Z,92.80
2023-02-11T10:44:20.143Z,94.80
2023-02-11T10:45:20.126Z,92.00
2023-02-11T10:46:20.157Z,86.40
2023-02-11T10:47:20.114Z,90.70
2023-02-11T10:48:20.092Z,95.30
2023-02-11T10:49:20.083Z,87.80
2023-02-11T10:50:20.053Z,98.30
2023-02-11T10:51:20.053Z,98.00
2023-02-11T10:52:20.034Z,99.10
2023-02-11T10:53:20.032Z,85.30
2023-02-11T10:54:20.028Z,94.00
2023-02-11T10:55:20.021Z,92.90
2023-02-11T10:56:19.985Z,92.60
2023-02-11T10:57:19.974Z,104.60
2023-02-11T10:58:19.964Z,86.10
2023-02-11T10:59:21.596Z,94.60
2023-02-11T11:00:19.926Z,93.60
2023-02-11T11:01:24.851Z,99.50
2023-02-11T11:02:20.912Z,94.10
2023-02-11T11:03:19.888Z,103.90
2023-02-11T11:04:19.961Z,95.70
2023-02-11T11:05:19.886Z,98.40
2023-02-11T11:06:19.848Z,94.90
2023-02-11T11:07:19.858Z,89.70
2023-02-11T11:08:19.820Z,95.20
2023-02-11T11:09:19.816Z,98.80
2023-02-11T11:10:19.793Z,99.10
2023-02-11T11:11:19.785Z,100.30
2023-02-11T11:12:19.766Z,100.00
2023-02-11T11:13:19.788Z,93.50
2023-02-11T11:14:19.788Z,94.10
2023-02-11T11:15:19.734Z,106.90
2023-02-11T11:16:19.746Z,99.20
2023-02-11T11:17:19.705Z,94.20
2023-02-11T11:18:22.433Z,95.20
2023-02-11T11:19:20.390Z,86.70
2023-02-11T11:20:19.656Z,96.90
2023-02-11T11:21:19.655Z,90.00
2023-02-11T11:22:19.636Z,96.90
2023-02-11T11:23:19.636Z,99.20
2023-02-11T11:24:19.628Z,96.00
2023-02-11T11:25:19.597Z,96.40
2023-02-11T11:26:19.583Z,97.60
2023-02-11T11:27:19.569Z,98.00
2023-02-11T11:28:19.576Z,92.30
2023-02-11T11:29:19.567Z,91.80
2023-02-11T11:30:19.542Z,96.70
2023-02-11T11:31:19.629Z,99.90
2023-02-11T11:32:20.610Z,96.50
2023-02-11T11:33:19.511Z,101.30
2023-02-11T11:34:19.487Z,101.10
2023-02-11T11:35:19.468Z,103.00
2023-02-11T11:36:19.446Z,95.30
2023-02-11T11:37:19.486Z,96.10
2023-02-11T11:38:19.415Z,108.40
2023-02-11T11:39:19.424Z,102.30
2023-02-11T11:40:19.398Z,94.20
2023-02-11T11:41:19.384Z,98.60
2023-02-11T11:42:19.366Z,106.00
2023-02-11T11:43:21.364Z,103.40
2023-02-11T11:44:19.355Z,105.80
2023-02-11T11:45:19.346Z,112.10
2023-02-11T11:46:19.327Z,109.40
2023-02-11T11:47:19.308Z,111.00
2023-02-11T11:48:19.293Z,112.60
2023-02-11T11:49:19.291Z,107.70
2023-02-11T11:50:21.111Z,112.10
2023-02-11T11:51:19.252Z,113.30
2023-02-11T11:52:19.242Z,110.70
2023-02-11T11:53:19.212Z,106.70
2023-02-11T11:54:19.227Z,116.50
2023-02-11T11:55:19.192Z,112.20
2023-02-11T11:56:19.195Z,114.10
2023-02-11T11:57:19.164Z,104.20
2023-02-11T11:58:19.155Z,107.10
2023-02-11T11:59:19.152Z,107.30
2023-02-11T12:00:19.143Z,107.60
2023-02-11T12:01:19.119Z,108.60
2023-02-11T12:02:19.180Z,110.40
2023-02-11T12:03:19.150Z,113.10
2023-02-11T12:04:19.083Z,110.10
2023-02-11T12:05:19.062Z,106.80
2023-02-11T12:06:19.051Z,107.40
2023-02-11T12:07:19.057Z,112.40
2023-02-11T12:08:19.015Z,107.20
2023-02-11T12:09:19.022Z,113.10
2023-02-11T12:10:18.993Z,113.70
2023-02-11T12:11:18.981Z,113.20
2023-02-11T12:12:18.974Z,115.60
2023-02-11T12:13:18.973Z,117.80
2023-02-11T12:14:18.973Z,113.30
2023-02-11T12:15:18.938Z,114.40
2023-02-11T12:16:18.984Z,119.30
2023-02-11T12:17:18.923Z,112.10
2023-02-11T12:18:18.899Z,116.90
2023-02-11T12:19:18.910Z,110.40
2023-02-11T12:20:18.880Z,112.90
2023-02-11T12:21:18.870Z,121.50
2023-02-11T12:22:18.856Z,113.10
2023-02-11T12:23:18.838Z,119.00
2023-02-11T12:24:18.843Z,113.80
2023-02-11T12:25:18.810Z,112.00
2023-02-11T12:26:18.791Z,125.30
2023-02-11T12:27:18.785Z,106.70
2023-02-11T12:28:18.836Z,113.10
2023-02-11T12:29:18.783Z,108.80
2023-02-11T12:30:18.741Z,109.30
2023-02-11T12:31:18.783Z,112.40
2023-02-11T12:32:18.709Z,119.00
2023-02-11T12:33:18.717Z,113.90
2023-02-11T12:34:18.708Z,114.60
2023-02-11T12:35:18.705Z,118.40
2023-02-11T12:36:18.694Z,108.80
2023-02-11T12:37:18.682Z,121.70
2023-02-11T12:38:18.689Z,111.50
2023-02-11T12:39:18.704Z,112.80
2023-02-11T12:40:18.604Z,109.40
2023-02-11T12:41:18.613Z,109.40
2023-02-11T12:42:18.601Z,109.20
2023-02-11T12:43:18.592Z,104.60
2023-02-11T12:44:18.556Z,109.70
2023-02-11T12:45:18.615Z,115.10
2023-02-11T12:46:18.562Z,114.50
2023-02-11T12:47:18.526Z,101.90
2023-02-11T12:48:18.504Z,107.10
2023-02-11T12:49:18.497Z,112.00
2023-02-11T12:50:18.497Z,107.50